Time;durP1;ratioP1;P1;durP2;ratioP2;P2;SDS_P1;SDS_P2;PMS_P1;PMS_P2;Temp;Humidity;BMP_temperature;BMP_pressure;BME280_temperature;BME280_humidity;BME280_pressure;Samples;Min_cycle;Max_cycle;Signal;HPM_P1;HPM_P2
2022/01/17 00:02:21;;;;;;;21.33;14.00;;;;;;;;;;5050553;28;20234;-79
2022/01/17 00:04:49;;;;;;;22.43;15.07;;;;;;;;;;5059355;28;20216;-79
2022/01/17 00:07:16;;;;;;;25.97;15.67;;;;;;;;;;5064422;28;20225;-79
2022/01/17 00:09:43;;;;;;;26.43;17.13;;;;;;;;;;5066953;28;20201;-80
2022/01/17 00:12:11;;;;;;;28.50;17.40;;;;;;;;;;5072807;28;20204;-80
2022/01/17 00:14:41;;;;;;;23.20;14.83;;;;;;;;;;5075464;28;20225;-81
2022/01/17 00:17:24;;;;;;;22.63;13.87;;;;;;;;;;5078802;28;20194;-81
2022/01/17 00:19:55;;;;;;;24.30;14.87;;;;;;;;;;5077182;28;20232;-80
2022/01/17 00:22:22;;;;;;;25.67;16.03;;;;;;;;;;5074526;28;20256;-81
2022/01/17 00:24:50;;;;;;;21.70;12.30;;;;;;;;;;5075234;28;20212;-80
2022/01/17 00:27:17;;;;;;;24.03;14.73;;;;;;;;;;5074416;28;20216;-81
2022/01/17 00:29:44;;;;;;;26.27;15.57;;;;;;;;;;5074899;28;20201;-80
2022/01/17 00:32:14;;;;;;;18.57;12.13;;;;;;;;;;5074166;28;20214;-79
2022/01/17 00:34:41;;;;;;;27.87;16.17;;;;;;;;;;5074643;28;20229;-80
2022/01/17 00:37:08;;;;;;;28.40;17.00;;;;;;;;;;5057683;28;20206;-79
2022/01/17 00:39:35;;;;;;;29.20;16.73;;;;;;;;;;5074865;28;20259;-80
2022/01/17 00:42:02;;;;;;;23.43;15.17;;;;;;;;;;5074178;28;20206;-79
2022/01/17 00:44:29;;;;;;;27.70;16.07;;;;;;;;;;5064695;28;20202;-80
2022/01/17 00:46:56;;;;;;;26.83;16.23;;;;;;;;;;5068150;28;20202;-80
2022/01/17 00:49:24;;;;;;;32.47;17.33;;;;;;;;;;5074197;28;20251;-80
2022/01/17 00:51:51;;;;;;;28.80;16.63;;;;;;;;;;5074473;28;20328;-80
2022/01/17 00:54:18;;;;;;;21.50;13.43;;;;;;;;;;5073943;28;20237;-79
2022/01/17 00:56:46;;;;;;;29.90;17.83;;;;;;;;;;5074484;28;20613;-80
2022/01/17 00:59:13;;;;;;;26.73;16.03;;;;;;;;;;5073867;28;20630;-81
2022/01/17 01:01:40;;;;;;;27.50;16.80;;;;;;;;;;5058607;28;20219;-79
2022/01/17 01:04:07;;;;;;;20.43;12.07;;;;;;;;;;5073082;28;20241;-81
2022/01/17 01:06:36;;;;;;;30.57;17.37;;;;;;;;;;5074186;28;20251;-80
2022/01/17 01:09:04;;;;;;;26.93;16.73;;;;;;;;;;5067724;28;20672;-79
2022/01/17 01:11:31;;;;;;;29.70;17.23;;;;;;;;;;5053965;28;20226;-80
2022/01/17 01:13:58;;;;;;;22.27;12.83;;;;;;;;;;5064651;28;20618;-80
2022/01/17 01:16:33;;;;;;;21.10;13.27;;;;;;;;;;5074025;28;20899;-80
2022/01/17 01:19:19;;;;;;;20.63;11.93;;;;;;;;;;5073851;28;20237;-80
2022/01/17 01:22:00;;;;;;;25.63;14.60;;;;;;;;;;5057789;28;20222;-80
2022/01/17 01:29:56;;;;;;;21.27;12.20;;;;;;;;;;5068156;28;20224;-79
2022/01/17 01:32:28;;;;;;;25.60;15.00;;;;;;;;;;5057587;28;20716;-79
2022/01/17 01:34:58;;;;;;;28.90;16.87;;;;;;;;;;5053705;28;20767;-79
2022/01/17 01:37:26;;;;;;;28.33;14.10;;;;;;;;;;5067928;28;20241;-79
2022/01/17 01:39:54;;;;;;;28.83;16.27;;;;;;;;;;5078566;28;20226;-80
2022/01/17 01:42:23;;;;;;;22.97;13.37;;;;;;;;;;5059509;28;20259;-80
2022/01/17 01:44:52;;;;;;;24.00;15.00;;;;;;;;;;5060684;28;20551;-80
2022/01/17 01:47:21;;;;;;;23.73;14.60;;;;;;;;;;5061224;28;20251;-79
2022/01/17 01:49:48;;;;;;;24.60;15.77;;;;;;;;;;5078925;28;20673;-80
2022/01/17 01:52:15;;;;;;;25.70;16.20;;;;;;;;;;5053724;28;20214;-79
2022/01/17 01:54:43;;;;;;;29.47;16.40;;;;;;;;;;5053649;28;20214;-79
2022/01/17 01:57:11;;;;;;;27.90;15.37;;;;;;;;;;5053203;28;20213;-79
2022/01/17 01:59:38;;;;;;;31.07;15.53;;;;;;;;;;5064813;28;20197;-79
2022/01/17 02:02:05;;;;;;;25.33;15.73;;;;;;;;;;5072864;28;20211;-80
2022/01/17 02:04:32;;;;;;;27.97;15.27;;;;;;;;;;5060942;28;20213;-79
2022/01/17 02:06:59;;;;;;;26.63;16.47;;;;;;;;;;5062189;28;20206;-80
2022/01/17 02:09:27;;;;;;;23.67;13.67;;;;;;;;;;5053265;28;20195;-79
2022/01/17 02:11:55;;;;;;;27.87;15.77;;;;;;;;;;5067057;28;20221;-79
2022/01/17 02:14:22;;;;;;;26.23;15.10;;;;;;;;;;5072303;28;20290;-79
2022/01/17 02:16:50;;;;;;;19.50;11.37;;;;;;;;;;5073133;28;20227;-79
2022/01/17 02:19:21;;;;;;;24.50;15.37;;;;;;;;;;5072367;28;20251;-80
2022/01/17 02:21:50;;;;;;;21.57;13.07;;;;;;;;;;5072930;28;20316;-79
2022/01/17 02:24:20;;;;;;;22.57;12.63;;;;;;;;;;5072320;28;20233;-79
2022/01/17 02:26:48;;;;;;;20.23;13.67;;;;;;;;;;5072195;28;20205;-80
2022/01/17 02:29:15;;;;;;;20.53;12.87;;;;;;;;;;5072406;28;20587;-79
2022/01/17 02:31:42;;;;;;;25.53;13.47;;;;;;;;;;5072702;28;20244;-79
2022/01/17 02:34:09;;;;;;;17.70;11.73;;;;;;;;;;5071961;28;20245;-79
2022/01/17 02:36:36;;;;;;;21.37;14.00;;;;;;;;;;5072814;28;20286;-79
2022/01/17 02:39:05;;;;;;;24.53;15.07;;;;;;;;;;5070441;28;20240;-79
2022/01/17 02:41:33;;;;;;;22.53;13.20;;;;;;;;;;5052218;28;20231;-81
2022/01/17 02:44:01;;;;;;;23.73;14.93;;;;;;;;;;5052166;28;20744;-80
2022/01/17 02:46:28;;;;;;;19.80;13.40;;;;;;;;;;5052430;28;20666;-79
2022/01/17 02:48:56;;;;;;;22.07;13.70;;;;;;;;;;5069552;28;20237;-79
2022/01/17 02:51:24;;;;;;;20.20;13.33;;;;;;;;;;5072615;28;20232;-80
2022/01/17 02:53:51;;;;;;;24.80;14.17;;;;;;;;;;5072079;28;20229;-79
2022/01/17 02:56:20;;;;;;;20.47;13.50;;;;;;;;;;5072220;28;20223;-79
2022/01/17 02:58:47;;;;;;;21.53;13.30;;;;;;;;;;5072313;28;20263;-80
2022/01/17 03:01:16;;;;;;;18.27;10.47;;;;;;;;;;5074584;28;20685;-79
2022/01/17 03:03:43;;;;;;;22.37;13.10;;;;;;;;;;5075255;28;20241;-80
2022/01/17 03:06:10;;;;;;;23.43;12.93;;;;;;;;;;5055033;28;20201;-80
2022/01/17 03:08:38;;;;;;;21.00;13.13;;;;;;;;;;5054594;28;20608;-79
2022/01/17 03:11:06;;;;;;;21.30;12.53;;;;;;;;;;5069160;28;20727;-80
2022/01/17 03:13:37;;;;;;;23.80;15.90;;;;;;;;;;5076633;28;20234;-79
2022/01/17 03:16:09;;;;;;;17.90;10.80;;;;;;;;;;5063249;28;20224;-79
2022/01/17 03:18:37;;;;;;;20.50;13.33;;;;;;;;;;5055825;28;20237;-79
2022/01/17 03:21:05;;;;;;;20.67;12.13;;;;;;;;;;5065471;28;20231;-79
2022/01/17 03:23:32;;;;;;;16.77;9.90;;;;;;;;;;5067131;28;20230;-80
2022/01/17 03:25:59;;;;;;;19.83;12.10;;;;;;;;;;5056979;28;20247;-79
2022/01/17 03:28:26;;;;;;;23.37;12.97;;;;;;;;;;5060757;28;20245;-80
2022/01/17 03:30:55;;;;;;;23.37;14.17;;;;;;;;;;5064503;28;20624;-81
2022/01/17 03:33:22;;;;;;;19.33;12.70;;;;;;;;;;5074282;28;20233;-80
2022/01/17 03:35:49;;;;;;;21.30;12.40;;;;;;;;;;5059698;28;20222;-80
2022/01/17 03:38:17;;;;;;;18.43;12.30;;;;;;;;;;5077035;28;20710;-81
2022/01/17 03:40:46;;;;;;;21.47;13.10;;;;;;;;;;5079671;28;20243;-80
2022/01/17 03:43:13;;;;;;;21.37;13.87;;;;;;;;;;5060836;28;20261;-80
2022/01/17 03:45:41;;;;;;;23.70;12.60;;;;;;;;;;5059437;28;20671;-80
2022/01/17 03:48:09;;;;;;;22.53;15.20;;;;;;;;;;5059350;28;20275;-80
2022/01/17 03:50:37;;;;;;;22.33;12.47;;;;;;;;;;5079935;28;20245;-81
2022/01/17 03:53:04;;;;;;;20.73;12.30;;;;;;;;;;5063493;28;20297;-80
2022/01/17 03:55:33;;;;;;;23.10;13.83;;;;;;;;;;5070012;28;20237;-80
2022/01/17 03:58:00;;;;;;;21.50;13.50;;;;;;;;;;5069828;28;20237;-80
2022/01/17 04:00:29;;;;;;;23.43;15.33;;;;;;;;;;5076187;28;20770;-80
2022/01/17 04:02:58;;;;;;;20.97;14.43;;;;;;;;;;5080706;28;20293;-80
2022/01/17 04:05:27;;;;;;;20.40;12.20;;;;;;;;;;5078023;28;20673;-80
2022/01/17 04:07:54;;;;;;;20.57;13.13;;;;;;;;;;5085238;28;20230;-79
2022/01/17 04:10:21;;;;;;;20.73;12.63;;;;;;;;;;5080103;28;20218;-80
2022/01/17 04:12:48;;;;;;;20.23;13.23;;;;;;;;;;5059532;28;20225;-80
2022/01/17 04:15:15;;;;;;;24.70;13.07;;;;;;;;;;5059821;28;20546;-80
2022/01/17 04:17:43;;;;;;;21.70;12.53;;;;;;;;;;5069716;28;20649;-80
2022/01/17 04:20:14;;;;;;;18.50;10.87;;;;;;;;;;5073031;28;20234;-79
2022/01/17 04:22:45;;;;;;;15.63;10.50;;;;;;;;;;5059846;28;20256;-80
2022/01/17 04:25:12;;;;;;;20.57;12.17;;;;;;;;;;5080407;28;20213;-80
2022/01/17 04:27:39;;;;;;;21.27;13.10;;;;;;;;;;5062424;28;20261;-81
2022/01/17 04:30:07;;;;;;;21.10;11.67;;;;;;;;;;5061597;28;20272;-80
2022/01/17 04:32:34;;;;;;;20.43;12.53;;;;;;;;;;5060487;28;20248;-81
2022/01/17 04:35:01;;;;;;;17.60;11.60;;;;;;;;;;5060901;28;20628;-81
2022/01/17 04:37:28;;;;;;;18.80;11.73;;;;;;;;;;5060569;28;20239;-80
2022/01/17 04:39:57;;;;;;;18.67;12.00;;;;;;;;;;5061276;28;20231;-81
2022/01/17 04:42:27;;;;;;;17.57;11.77;;;;;;;;;;5061189;28;20610;-81
2022/01/17 04:45:11;;;;;;;20.27;12.47;;;;;;;;;;5061703;28;20208;-80
2022/01/17 04:47:39;;;;;;;16.27;11.40;;;;;;;;;;5066080;28;20237;-80
2022/01/17 04:50:07;;;;;;;18.30;12.33;;;;;;;;;;5059896;28;20241;-81
2022/01/17 04:52:35;;;;;;;21.77;13.97;;;;;;;;;;5060175;28;20244;-81
2022/01/17 04:55:04;;;;;;;16.27;9.80;;;;;;;;;;5060319;28;20211;-80
2022/01/17 04:57:31;;;;;;;10.97;7.93;;;;;;;;;;5060604;28;20268;-80
2022/01/17 04:59:58;;;;;;;19.10;11.43;;;;;;;;;;5060790;28;20230;-81
2022/01/17 05:02:25;;;;;;;16.97;11.60;;;;;;;;;;5059892;28;20241;-80
2022/01/17 05:04:52;;;;;;;20.67;12.33;;;;;;;;;;5060892;28;20222;-81
2022/01/17 05:07:20;;;;;;;17.87;12.20;;;;;;;;;;5060323;28;20252;-80
2022/01/17 05:09:47;;;;;;;19.10;13.17;;;;;;;;;;5060338;28;20255;-80
2022/01/17 05:12:16;;;;;;;15.47;10.40;;;;;;;;;;5059349;28;20504;-81
2022/01/17 05:14:48;;;;;;;16.13;11.00;;;;;;;;;;5062728;28;20214;-81
2022/01/17 05:17:38;;;;;;;17.00;11.13;;;;;;;;;;5061683;28;20226;-81
2022/01/17 05:20:06;;;;;;;20.17;12.23;;;;;;;;;;5062877;28;20225;-81
2022/01/17 05:22:34;;;;;;;17.60;10.93;;;;;;;;;;5062293;28;20690;-81
2022/01/17 05:25:02;;;;;;;17.57;10.37;;;;;;;;;;5062681;28;20203;-81
2022/01/17 05:27:30;;;;;;;19.87;11.17;;;;;;;;;;5063822;28;20237;-81
2022/01/17 05:29:57;;;;;;;19.03;12.13;;;;;;;;;;5063812;28;20226;-82
2022/01/17 05:32:27;;;;;;;20.87;12.40;;;;;;;;;;5063129;28;20312;-81
2022/01/17 05:34:54;;;;;;;14.20;9.27;;;;;;;;;;5063177;28;20212;-81
2022/01/17 05:37:21;;;;;;;16.97;10.50;;;;;;;;;;5063565;28;20296;-81
2022/01/17 05:39:48;;;;;;;17.73;11.60;;;;;;;;;;5063306;28;20205;-81
2022/01/17 05:42:17;;;;;;;17.63;10.90;;;;;;;;;;5062329;28;20208;-81
2022/01/17 05:44:46;;;;;;;19.87;11.30;;;;;;;;;;5063080;28;20293;-81
2022/01/17 05:47:13;;;;;;;16.03;10.83;;;;;;;;;;5062868;28;20206;-81
2022/01/17 05:49:41;;;;;;;18.47;10.77;;;;;;;;;;5062710;28;20570;-81
2022/01/17 05:52:08;;;;;;;18.33;11.17;;;;;;;;;;5062221;28;20205;-81
2022/01/17 05:54:36;;;;;;;17.30;9.40;;;;;;;;;;5063650;28;20209;-81
2022/01/17 05:57:03;;;;;;;20.93;12.07;;;;;;;;;;5062835;28;20233;-81
2022/01/17 05:59:30;;;;;;;15.23;10.00;;;;;;;;;;5063115;28;20697;-82
2022/01/17 06:01:59;;;;;;;16.93;9.97;;;;;;;;;;5063252;28;20206;-81
2022/01/17 06:04:26;;;;;;;16.30;10.30;;;;;;;;;;5064084;28;20215;-81
2022/01/17 06:06:53;;;;;;;15.20;10.40;;;;;;;;;;5063829;28;20200;-81
2022/01/17 06:09:20;;;;;;;18.80;10.80;;;;;;;;;;5060256;28;20230;-83
2022/01/17 06:11:47;;;;;;;17.00;10.57;;;;;;;;;;5054808;28;20230;-83
2022/01/17 06:14:17;;;;;;;14.63;9.87;;;;;;;;;;5053765;28;20249;-83
2022/01/17 06:16:44;;;;;;;15.07;9.30;;;;;;;;;;5055345;28;20227;-83
2022/01/17 06:19:12;;;;;;;14.97;9.37;;;;;;;;;;5054003;28;20240;-83
2022/01/17 06:21:39;;;;;;;11.40;8.30;;;;;;;;;;5054461;28;20567;-83
2022/01/17 06:24:09;;;;;;;14.23;9.30;;;;;;;;;;5054550;28;20245;-83
2022/01/17 06:26:36;;;;;;;17.17;9.90;;;;;;;;;;5055322;28;20202;-83
2022/01/17 06:29:03;;;;;;;13.23;9.17;;;;;;;;;;5053889;28;20245;-83
2022/01/17 06:31:30;;;;;;;12.97;9.63;;;;;;;;;;5055479;28;20226;-83
2022/01/17 06:33:57;;;;;;;14.97;9.80;;;;;;;;;;5054574;28;20241;-83
2022/01/17 06:36:26;;;;;;;14.77;9.80;;;;;;;;;;5055760;28;20240;-82
2022/01/17 06:38:53;;;;;;;16.13;10.40;;;;;;;;;;5055177;28;20253;-83
2022/01/17 06:41:21;;;;;;;9.07;6.73;;;;;;;;;;5055269;28;20712;-83
2022/01/17 06:43:48;;;;;;;16.67;11.20;;;;;;;;;;5054824;28;20249;-83
2022/01/17 06:46:15;;;;;;;14.53;10.40;;;;;;;;;;5054254;28;20210;-83
2022/01/17 06:48:43;;;;;;;18.07;10.57;;;;;;;;;;5053904;28;20233;-83
2022/01/17 06:51:10;;;;;;;14.07;9.83;;;;;;;;;;5053162;28;20227;-83
2022/01/17 06:53:38;;;;;;;14.63;9.63;;;;;;;;;;5052849;28;20241;-83
2022/01/17 06:56:05;;;;;;;12.77;6.53;;;;;;;;;;5052982;28;20605;-83
2022/01/17 06:58:35;;;;;;;16.17;10.30;;;;;;;;;;5053378;28;20264;-83
2022/01/17 07:01:02;;;;;;;13.30;9.33;;;;;;;;;;5054286;28;20229;-83
2022/01/17 07:03:29;;;;;;;14.30;10.43;;;;;;;;;;5085802;28;20240;-83
2022/01/17 07:05:56;;;;;;;14.67;10.10;;;;;;;;;;5097716;28;20224;-82
2022/01/17 07:08:23;;;;;;;14.87;9.07;;;;;;;;;;5096463;28;20232;-84
2022/01/17 07:10:51;;;;;;;11.33;6.80;;;;;;;;;;5093631;28;20220;-83
2022/01/17 07:13:18;;;;;;;15.00;9.63;;;;;;;;;;5093632;28;20235;-83
2022/01/17 07:15:45;;;;;;;9.77;7.57;;;;;;;;;;5095945;28;20212;-83
2022/01/17 07:18:13;;;;;;;9.13;6.87;;;;;;;;;;5095003;28;20243;-83
2022/01/17 07:20:40;;;;;;;13.47;8.83;;;;;;;;;;5096019;28;20232;-83
2022/01/17 07:23:07;;;;;;;14.50;9.47;;;;;;;;;;5095188;28;20732;-83
2022/01/17 07:25:38;;;;;;;12.87;8.90;;;;;;;;;;5095918;28;20614;-83
2022/01/17 07:28:06;;;;;;;15.80;9.93;;;;;;;;;;5094810;28;20712;-83
2022/01/17 07:30:34;;;;;;;15.97;10.10;;;;;;;;;;5098087;28;20224;-83
2022/01/17 07:33:01;;;;;;;10.87;7.60;;;;;;;;;;5096100;28;20259;-83
2022/01/17 07:35:28;;;;;;;15.40;9.90;;;;;;;;;;5079343;28;20197;-82
2022/01/17 07:37:55;;;;;;;15.30;10.00;;;;;;;;;;5098421;28;20228;-82
2022/01/17 07:40:22;;;;;;;12.17;9.20;;;;;;;;;;5079115;28;20228;-82
2022/01/17 07:42:49;;;;;;;14.10;10.03;;;;;;;;;;5079337;28;20679;-82
2022/01/17 07:45:19;;;;;;;11.33;7.97;;;;;;;;;;5079031;28;20629;-82
2022/01/17 07:48:07;;;;;;;15.53;9.47;;;;;;;;;;5077963;28;20275;-82
2022/01/17 07:50:33;;;;;;;12.17;8.57;;;;;;;;;;5077973;28;20278;-82
2022/01/17 07:53:00;;;;;;;17.87;10.30;;;;;;;;;;5078239;28;20305;-82
2022/01/17 07:55:27;;;;;;;15.07;9.90;;;;;;;;;;5079259;28;20210;-82
2022/01/17 07:57:55;;;;;;;13.63;10.33;;;;;;;;;;5078913;28;20652;-82
2022/01/17 08:00:25;;;;;;;15.20;9.20;;;;;;;;;;5079063;28;20666;-81
2022/01/17 08:02:53;;;;;;;8.27;6.87;;;;;;;;;;5076993;28;20230;-82
2022/01/17 08:05:20;;;;;;;12.17;9.07;;;;;;;;;;5078911;28;20248;-82
2022/01/17 08:07:47;;;;;;;13.27;9.00;;;;;;;;;;5077057;28;20320;-83
2022/01/17 08:10:14;;;;;;;11.40;7.23;;;;;;;;;;5078428;28;20256;-82
2022/01/17 08:12:42;;;;;;;14.37;8.47;;;;;;;;;;5079362;28;20645;-83
2022/01/17 08:15:09;;;;;;;13.33;7.57;;;;;;;;;;5080230;28;20190;-82
2022/01/17 08:17:38;;;;;;;13.80;8.90;;;;;;;;;;5079850;28;20237;-82
2022/01/17 08:20:05;;;;;;;12.13;7.67;;;;;;;;;;5078685;28;20229;-84
2022/01/17 08:22:33;;;;;;;14.60;9.67;;;;;;;;;;5079386;28;20229;-82
2022/01/17 08:25:00;;;;;;;15.93;10.03;;;;;;;;;;5078790;28;20190;-83
2022/01/17 08:27:28;;;;;;;16.70;9.80;;;;;;;;;;5061473;28;20240;-83
2022/01/17 08:29:55;;;;;;;7.57;5.80;;;;;;;;;;5054004;28;20269;-83
2022/01/17 08:32:22;;;;;;;14.33;9.50;;;;;;;;;;5054234;28;20271;-84
2022/01/17 08:34:50;;;;;;;14.83;9.63;;;;;;;;;;5058325;28;20710;-82
2022/01/17 08:37:18;;;;;;;13.57;8.37;;;;;;;;;;5074420;28;20298;-84
2022/01/17 08:39:45;;;;;;;14.77;9.07;;;;;;;;;;5076521;28;20195;-83
2022/01/17 08:42:12;;;;;;;13.43;8.23;;;;;;;;;;5074306;28;20191;-84
2022/01/17 08:44:39;;;;;;;14.57;9.03;;;;;;;;;;5075153;28;20211;-84
2022/01/17 08:47:06;;;;;;;12.50;9.00;;;;;;;;;;5074621;28;20209;-85
2022/01/17 08:49:33;;;;;;;13.87;9.27;;;;;;;;;;5075976;28;20210;-84
2022/01/17 08:52:02;;;;;;;16.73;8.93;;;;;;;;;;5074812;28;20614;-84
2022/01/17 08:54:29;;;;;;;14.37;8.97;;;;;;;;;;5074649;28;20258;-84
2022/01/17 08:56:56;;;;;;;10.97;7.73;;;;;;;;;;5074280;28;20720;-85
2022/01/17 08:59:23;;;;;;;13.70;9.10;;;;;;;;;;5074548;28;20239;-84
2022/01/17 09:01:50;;;;;;;14.57;8.57;;;;;;;;;;5074514;28;20222;-84
2022/01/17 09:04:17;;;;;;;12.73;8.87;;;;;;;;;;5074490;28;20237;-84
2022/01/17 09:06:44;;;;;;;9.93;6.90;;;;;;;;;;5076173;28;20204;-84
2022/01/17 09:09:13;;;;;;;15.73;9.33;;;;;;;;;;5077344;28;20231;-83
2022/01/17 09:11:40;;;;;;;16.90;10.90;;;;;;;;;;5078500;28;20233;-84
2022/01/17 09:14:07;;;;;;;10.33;7.33;;;;;;;;;;5074788;28;20246;-84
2022/01/17 09:16:34;;;;;;;12.53;8.17;;;;;;;;;;5075177;28;20185;-82
2022/01/17 09:19:02;;;;;;;14.40;8.93;;;;;;;;;;5073183;28;20253;-84
2022/01/17 09:21:29;;;;;;;14.43;9.10;;;;;;;;;;5073562;28;20246;-83
2022/01/17 09:23:58;;;;;;;14.27;8.70;;;;;;;;;;5073080;28;20250;-84
2022/01/17 09:26:27;;;;;;;15.93;9.00;;;;;;;;;;5074652;28;20600;-83
2022/01/17 09:28:55;;;;;;;14.07;9.60;;;;;;;;;;5075834;28;20764;-83
2022/01/17 09:31:23;;;;;;;14.83;9.63;;;;;;;;;;5073684;28;20227;-83
2022/01/17 09:33:50;;;;;;;12.43;8.07;;;;;;;;;;5073479;28;20230;-84
2022/01/17 09:36:17;;;;;;;15.10;9.37;;;;;;;;;;5074828;28;20216;-83
2022/01/17 09:38:44;;;;;;;8.83;6.17;;;;;;;;;;5075242;28;20267;-83
2022/01/17 09:41:11;;;;;;;13.40;7.83;;;;;;;;;;5077430;28;20601;-82
2022/01/17 09:43:40;;;;;;;13.40;9.33;;;;;;;;;;5087734;28;20235;-83
2022/01/17 09:46:07;;;;;;;16.20;9.50;;;;;;;;;;5079551;28;20265;-83
2022/01/17 09:48:37;;;;;;;12.00;8.80;;;;;;;;;;5079164;28;20239;-82
2022/01/17 09:51:15;;;;;;;14.77;9.40;;;;;;;;;;5077366;28;20232;-83
2022/01/17 09:53:43;;;;;;;16.03;9.13;;;;;;;;;;5078806;28;20237;-83
2022/01/17 09:56:11;;;;;;;12.60;8.43;;;;;;;;;;5078660;28;20628;-82
2022/01/17 09:58:41;;;;;;;12.00;8.33;;;;;;;;;;5078885;28;20243;-82
2022/01/17 10:01:09;;;;;;;13.17;8.60;;;;;;;;;;5078359;28;20230;-82
2022/01/17 10:03:37;;;;;;;7.57;5.70;;;;;;;;;;5079175;28;20239;-83
2022/01/17 10:06:05;;;;;;;11.57;8.43;;;;;;;;;;5079808;28;20209;-83
2022/01/17 10:08:32;;;;;;;14.97;9.30;;;;;;;;;;5079340;28;20235;-82
2022/01/17 10:11:00;;;;;;;10.23;7.07;;;;;;;;;;5078740;28;20253;-83
2022/01/17 10:13:29;;;;;;;12.50;8.70;;;;;;;;;;5079181;28;20287;-83
2022/01/17 10:16:02;;;;;;;13.17;8.90;;;;;;;;;;5079835;28;20208;-82
2022/01/17 10:18:31;;;;;;;15.23;8.53;;;;;;;;;;5078593;28;20228;-83
2022/01/17 10:21:03;;;;;;;12.73;8.17;;;;;;;;;;5077562;28;20230;-82
2022/01/17 10:23:57;;;;;;;11.33;8.20;;;;;;;;;;5078906;28;20626;-83
2022/01/17 10:26:50;;;;;;;14.33;9.07;;;;;;;;;;5078953;28;20195;-83
2022/01/17 10:35:08;;;;;;;11.60;6.87;;;;;;;;;;5077803;28;20443;-83
2022/01/17 10:37:35;;;;;;;13.70;9.07;;;;;;;;;;5076296;28;20247;-84
2022/01/17 10:40:06;;;;;;;14.33;8.50;;;;;;;;;;5075885;28;20238;-83
2022/01/17 10:42:35;;;;;;;12.53;9.03;;;;;;;;;;5076203;28;20735;-84
2022/01/17 10:45:04;;;;;;;14.93;9.37;;;;;;;;;;5076257;28;20213;-83
2022/01/17 10:47:35;;;;;;;10.87;7.17;;;;;;;;;;5076027;28;20231;-83
2022/01/17 10:50:04;;;;;;;11.53;8.03;;;;;;;;;;5074800;28;20288;-83
2022/01/17 10:52:34;;;;;;;10.77;8.17;;;;;;;;;;5073921;28;20735;-83
2022/01/17 10:55:02;;;;;;;11.70;8.23;;;;;;;;;;5074057;28;20205;-83
2022/01/17 10:57:33;;;;;;;8.53;6.90;;;;;;;;;;5073554;28;20635;-83
2022/01/17 11:00:01;;;;;;;13.40;8.47;;;;;;;;;;5073537;28;20222;-83
2022/01/17 11:02:28;;;;;;;8.40;7.07;;;;;;;;;;5073139;28;20235;-83
2022/01/17 11:04:57;;;;;;;10.87;7.47;;;;;;;;;;5075688;28;20212;-83
2022/01/17 11:07:25;;;;;;;9.83;7.37;;;;;;;;;;5075538;28;20316;-83
2022/01/17 11:09:54;;;;;;;9.87;6.30;;;;;;;;;;5072792;28;20205;-84
2022/01/17 11:12:21;;;;;;;10.97;7.40;;;;;;;;;;5077449;28;20231;-83
2022/01/17 11:14:48;;;;;;;9.60;7.03;;;;;;;;;;5074079;28;20219;-84
2022/01/17 11:17:23;;;;;;;10.23;7.20;;;;;;;;;;5073800;28;20201;-83
2022/01/17 11:20:06;;;;;;;8.67;6.73;;;;;;;;;;5071389;28;20256;-85
2022/01/17 11:22:35;;;;;;;10.57;7.87;;;;;;;;;;5072804;28;20232;-84
2022/01/17 11:25:02;;;;;;;12.33;7.20;;;;;;;;;;5073489;28;20209;-83
2022/01/17 11:27:29;;;;;;;7.73;5.90;;;;;;;;;;5072660;28;20744;-83
2022/01/17 11:29:57;;;;;;;9.87;7.63;;;;;;;;;;5072268;28;20237;-83
2022/01/17 11:32:24;;;;;;;10.73;7.23;;;;;;;;;;5071282;28;20240;-84
2022/01/17 11:34:52;;;;;;;9.77;6.70;;;;;;;;;;5052716;28;20236;-83
2022/01/17 11:37:19;;;;;;;9.37;6.53;;;;;;;;;;5053247;28;20697;-83
2022/01/17 11:39:49;;;;;;;9.63;7.70;;;;;;;;;;5051477;28;20317;-85
2022/01/17 11:42:29;;;;;;;10.87;7.27;;;;;;;;;;5050424;28;20202;-84
2022/01/17 11:44:56;;;;;;;12.37;7.77;;;;;;;;;;5051657;28;20213;-85
2022/01/17 11:47:38;;;;;;;12.00;8.23;;;;;;;;;;5051578;28;20243;-84
2022/01/17 11:50:20;;;;;;;10.93;7.10;;;;;;;;;;5050845;28;20228;-85
2022/01/17 11:52:47;;;;;;;8.23;6.30;;;;;;;;;;5051029;28;20245;-85
2022/01/17 11:55:35;;;;;;;11.57;8.13;;;;;;;;;;5051691;28;20693;-85
2022/01/17 11:58:19;;;;;;;12.13;7.90;;;;;;;;;;5051684;28;20234;-85
2022/01/17 12:00:46;;;;;;;9.47;7.33;;;;;;;;;;5055686;28;20265;-81
2022/01/17 12:03:20;;;;;;;11.07;8.17;;;;;;;;;;5055291;28;20622;-84
2022/01/17 12:05:47;;;;;;;11.57;8.13;;;;;;;;;;5055000;28;20210;-84
2022/01/17 12:08:18;;;;;;;8.03;6.00;;;;;;;;;;5054492;28;20229;-84
2022/01/17 12:10:52;;;;;;;11.93;7.97;;;;;;;;;;5055041;28;20572;-84
2022/01/17 12:13:40;;;;;;;10.13;7.87;;;;;;;;;;5054845;28;20240;-83
2022/01/17 12:16:14;;;;;;;12.03;8.20;;;;;;;;;;5054261;28;20619;-84
2022/01/17 12:18:42;;;;;;;12.93;8.40;;;;;;;;;;5056470;28;20759;-84
2022/01/17 12:21:24;;;;;;;12.27;8.03;;;;;;;;;;5069729;28;20232;-83
2022/01/17 12:23:51;;;;;;;14.67;8.60;;;;;;;;;;5084026;28;20235;-87
2022/01/17 12:26:30;;;;;;;11.00;7.87;;;;;;;;;;5078249;28;20626;-85
2022/01/17 12:28:59;;;;;;;13.53;8.23;;;;;;;;;;5078787;28;20239;-84
2022/01/17 12:31:39;;;;;;;10.77;8.10;;;;;;;;;;5077692;28;20312;-84
2022/01/17 12:34:17;;;;;;;10.83;7.20;;;;;;;;;;5074556;28;20238;-85
2022/01/17 12:36:46;;;;;;;12.07;7.83;;;;;;;;;;5076306;28;20278;-85
2022/01/17 12:39:14;;;;;;;12.60;8.10;;;;;;;;;;5075140;28;20316;-85
2022/01/17 12:41:44;;;;;;;10.37;7.70;;;;;;;;;;5077643;28;20572;-81
2022/01/17 12:44:16;;;;;;;11.57;8.03;;;;;;;;;;5079823;28;20233;-79
2022/01/17 12:46:44;;;;;;;10.83;8.33;;;;;;;;;;5075409;28;20209;-85
2022/01/17 12:49:11;;;;;;;12.43;7.57;;;;;;;;;;5074317;28;20240;-85
2022/01/17 12:51:40;;;;;;;13.90;8.27;;;;;;;;;;5073993;28;20229;-86
2022/01/17 12:54:11;;;;;;;11.80;8.03;;;;;;;;;;5074471;28;20241;-85
2022/01/17 12:56:41;;;;;;;11.97;7.93;;;;;;;;;;5074424;28;20206;-85
2022/01/17 12:59:10;;;;;;;9.83;6.53;;;;;;;;;;5076304;28;20870;-85
2022/01/17 13:01:41;;;;;;;12.37;8.90;;;;;;;;;;5075968;28;20235;-85
2022/01/17 13:04:11;;;;;;;11.67;8.00;;;;;;;;;;5075601;28;20725;-86
2022/01/17 13:06:38;;;;;;;12.50;7.80;;;;;;;;;;5076120;28;20208;-85
2022/01/17 13:09:09;;;;;;;13.03;8.47;;;;;;;;;;5074309;28;20615;-85
2022/01/17 13:11:39;;;;;;;13.77;8.30;;;;;;;;;;5073351;28;20252;-86
2022/01/17 13:14:06;;;;;;;11.30;8.50;;;;;;;;;;5074265;28;20233;-86
2022/01/17 13:16:35;;;;;;;17.17;8.70;;;;;;;;;;5074195;28;20669;-85
2022/01/17 13:19:04;;;;;;;13.17;8.07;;;;;;;;;;5074243;28;20236;-85
2022/01/17 13:21:31;;;;;;;13.43;7.37;;;;;;;;;;5073543;28;20226;-85
2022/01/17 13:24:02;;;;;;;11.27;8.30;;;;;;;;;;5073331;28;20237;-85
2022/01/17 13:26:30;;;;;;;8.27;6.83;;;;;;;;;;5074143;28;20192;-86
2022/01/17 13:28:59;;;;;;;11.70;8.60;;;;;;;;;;5074230;28;20229;-85
2022/01/17 13:31:27;;;;;;;12.00;7.17;;;;;;;;;;5073810;28;20229;-85
2022/01/17 13:33:56;;;;;;;11.23;7.50;;;;;;;;;;5073506;28;20229;-85
2022/01/17 13:36:25;;;;;;;9.70;6.87;;;;;;;;;;5072871;28;20213;-85
2022/01/17 13:39:06;;;;;;;7.03;5.80;;;;;;;;;;5073608;28;20247;-85
2022/01/17 13:41:34;;;;;;;11.17;7.83;;;;;;;;;;5073950;28;20229;-85
2022/01/17 13:44:01;;;;;;;11.73;7.23;;;;;;;;;;5073900;28;20850;-85
2022/01/17 13:46:28;;;;;;;10.40;7.27;;;;;;;;;;5074341;28;20197;-86
2022/01/17 13:48:57;;;;;;;13.63;7.97;;;;;;;;;;5072267;28;20603;-85
2022/01/17 13:51:25;;;;;;;12.07;7.63;;;;;;;;;;5074434;28;20225;-85
2022/01/17 13:53:54;;;;;;;10.73;8.37;;;;;;;;;;5072023;28;20298;-85
2022/01/17 13:56:21;;;;;;;13.20;8.57;;;;;;;;;;5074971;28;20200;-85
2022/01/17 13:58:51;;;;;;;9.63;6.63;;;;;;;;;;5074540;28;20240;-85
2022/01/17 14:01:18;;;;;;;13.10;9.30;;;;;;;;;;5075012;28;20288;-85
2022/01/17 14:03:46;;;;;;;12.37;8.53;;;;;;;;;;5074281;28;20240;-84
2022/01/17 14:06:15;;;;;;;12.20;8.10;;;;;;;;;;5075654;28;20240;-85
2022/01/17 14:08:43;;;;;;;13.20;8.43;;;;;;;;;;5074885;28;20614;-85
2022/01/17 14:11:12;;;;;;;14.07;8.50;;;;;;;;;;5073533;28;20522;-85
2022/01/17 14:13:45;;;;;;;9.00;6.97;;;;;;;;;;5072385;28;20248;-84
2022/01/17 14:16:13;;;;;;;12.70;8.43;;;;;;;;;;5083686;28;20208;-83
2022/01/17 14:18:42;;;;;;;12.00;7.97;;;;;;;;;;5089373;28;20319;-84
2022/01/17 14:21:09;;;;;;;14.00;8.60;;;;;;;;;;5088064;28;20228;-84
2022/01/17 14:23:37;;;;;;;10.50;6.87;;;;;;;;;;5087915;28;20290;-85
2022/01/17 14:26:04;;;;;;;12.80;7.50;;;;;;;;;;5089309;28;20206;-84
2022/01/17 14:28:33;;;;;;;9.60;7.60;;;;;;;;;;5087010;28;20241;-85
2022/01/17 14:31:13;;;;;;;11.13;7.50;;;;;;;;;;5088372;28;20232;-84
2022/01/17 14:33:41;;;;;;;11.87;8.17;;;;;;;;;;5090432;28;20229;-84
2022/01/17 14:36:10;;;;;;;13.53;9.03;;;;;;;;;;5090434;28;20209;-84
2022/01/17 14:38:45;;;;;;;13.60;8.40;;;;;;;;;;5088604;28;20229;-84
2022/01/17 14:41:16;;;;;;;10.83;7.00;;;;;;;;;;5074897;28;20224;-84
2022/01/17 14:43:43;;;;;;;13.57;8.10;;;;;;;;;;5072163;28;20241;-84
2022/01/17 14:46:10;;;;;;;13.87;9.17;;;;;;;;;;5072640;28;20213;-84
2022/01/17 14:48:39;;;;;;;13.87;8.07;;;;;;;;;;5072777;28;20229;-84